createdAt,value
2024-04-07T00:00:02.393Z,16.46
2024-04-07T00:01:02.407Z,16.45
2024-04-07T00:02:02.368Z,16.42
2024-04-07T00:03:02.383Z,16.39
2024-04-07T00:04:02.344Z,16.33
2024-04-07T00:05:02.320Z,16.27
2024-04-07T00:06:02.350Z,16.20
2024-04-07T00:07:02.389Z,16.12
2024-04-07T00:08:02.292Z,16.09
2024-04-07T00:09:02.296Z,16.02
2024-04-07T00:10:02.292Z,15.97
2024-04-07T00:11:02.283Z,15.93
2024-04-07T00:12:03.215Z,15.90
2024-04-07T00:13:02.315Z,15.86
2024-04-07T00:14:02.380Z,15.87
2024-04-07T00:15:02.242Z,15.89
2024-04-07T00:16:02.227Z,15.89
2024-04-07T00:17:02.218Z,15.87
2024-04-07T00:18:02.187Z,15.86
2024-04-07T00:19:02.239Z,15.86
2024-04-07T00:20:02.223Z,15.87
2024-04-07T00:21:02.178Z,15.84
2024-04-07T00:22:02.169Z,15.87
2024-04-07T00:23:02.168Z,15.87
2024-04-07T00:24:02.141Z,15.86
2024-04-07T00:25:02.151Z,15.84
2024-04-07T00:26:02.125Z,15.84
2024-04-07T00:27:02.091Z,15.82
2024-04-07T00:28:02.064Z,15.82
2024-04-07T00:29:02.081Z,15.78
2024-04-07T00:30:02.062Z,15.74
2024-04-07T00:31:02.064Z,15.74
2024-04-07T00:32:02.044Z,15.68
2024-04-07T00:33:02.056Z,15.67
2024-04-07T00:34:02.024Z,15.62
2024-04-07T00:35:02.020Z,15.57
2024-04-07T00:36:02.010Z,15.50
2024-04-07T00:37:02.029Z,15.44
2024-04-07T00:38:01.967Z,15.44
2024-04-07T00:39:01.970Z,15.39
2024-04-07T00:40:01.975Z,15.36
2024-04-07T00:41:01.968Z,15.35
2024-04-07T00:42:01.946Z,15.31
2024-04-07T00:43:01.971Z,15.29
2024-04-07T00:44:01.900Z,15.27
2024-04-07T00:45:01.885Z,15.25
2024-04-07T00:46:01.872Z,15.20
2024-04-07T00:47:01.867Z,15.20
2024-04-07T00:48:01.863Z,15.17
2024-04-07T00:49:01.934Z,15.14
2024-04-07T00:50:01.846Z,15.11
2024-04-07T00:51:01.816Z,15.09
2024-04-07T00:52:01.811Z,15.06
2024-04-07T00:53:01.834Z,15.03
2024-04-07T00:54:01.829Z,15.03
2024-04-07T00:55:02.201Z,15.02
2024-04-07T00:56:01.778Z,15.01
2024-04-07T00:57:01.838Z,15.01
2024-04-07T00:58:01.750Z,15.01
2024-04-07T00:59:01.740Z,14.99
2024-04-07T01:00:01.739Z,14.99
2024-04-07T01:01:01.759Z,14.96
2024-04-07T01:02:01.710Z,14.95
2024-04-07T01:03:01.709Z,14.92
2024-04-07T01:04:01.664Z,14.88
2024-04-07T01:05:01.757Z,14.84
2024-04-07T01:06:01.660Z,14.80
2024-04-07T01:07:01.717Z,14.77
2024-04-07T01:08:01.636Z,14.73
2024-04-07T01:09:01.635Z,14.69
2024-04-07T01:10:01.607Z,14.68
2024-04-07T01:11:01.607Z,14.64
2024-04-07T01:12:01.584Z,14.60
2024-04-07T01:13:02.583Z,14.58
2024-04-07T01:14:01.583Z,14.55
2024-04-07T01:15:01.579Z,14.54
2024-04-07T01:16:01.534Z,14.57
2024-04-07T01:17:01.528Z,14.58
2024-04-07T01:18:01.523Z,14.64
2024-04-07T01:19:01.538Z,14.69
2024-04-07T01:20:01.495Z,14.78
2024-04-07T01:21:01.502Z,14.86
2024-04-07T01:22:01.472Z,14.95
2024-04-07T01:23:01.473Z,15.02
2024-04-07T01:24:01.466Z,15.09
2024-04-07T01:25:01.495Z,15.14
2024-04-07T01:26:01.452Z,15.20
2024-04-07T01:27:01.459Z,15.32
2024-04-07T01:28:01.397Z,15.43
2024-04-07T01:29:01.408Z,15.51
2024-04-07T01:30:01.392Z,15.69
2024-04-07T01:31:01.442Z,15.84
2024-04-07T01:32:01.355Z,16.02
2024-04-07T01:33:01.362Z,16.17
2024-04-07T01:34:01.340Z,16.33
2024-04-07T01:35:01.341Z,16.46
2024-04-07T01:36:01.339Z,16.60
2024-04-07T01:37:01.313Z,16.71
2024-04-07T01:38:01.302Z,16.81
2024-04-07T01:39:01.287Z,16.86
2024-04-07T01:40:01.310Z,16.94
2024-04-07T01:41:01.296Z,16.98
2024-04-07T01:42:01.254Z,17.01
2024-04-07T01:43:01.270Z,17.01
2024-04-07T01:44:01.239Z,17.03
2024-04-07T01:45:01.254Z,17.03
2024-04-07T01:46:01.217Z,16.98
2024-04-07T01:47:01.194Z,16.96
2024-04-07T01:48:01.263Z,16.96
2024-04-07T01:49:01.238Z,16.96
2024-04-07T01:50:01.200Z,16.93
2024-04-07T01:51:01.166Z,16.97
2024-04-07T01:52:01.201Z,17.00
2024-04-07T01:53:01.187Z,17.06
2024-04-07T01:54:01.141Z,17.11
2024-04-07T01:55:01.227Z,17.08
2024-04-07T01:56:01.093Z,17.11
2024-04-07T01:57:01.121Z,17.14
2024-04-07T01:58:01.099Z,17.19
2024-04-07T01:59:01.066Z,17.22
2024-04-07T02:00:01.049Z,17.25
2024-04-07T02:01:01.179Z,17.23
2024-04-07T02:02:01.034Z,17.25
2024-04-07T02:03:01.025Z,17.25
2024-04-07T02:04:01.038Z,17.30
2024-04-07T02:05:01.015Z,17.31
2024-04-07T02:06:00.981Z,17.31
2024-04-07T02:07:01.035Z,17.36
2024-04-07T02:08:00.961Z,17.41
2024-04-07T02:09:00.944Z,17.40
2024-04-07T02:10:01.988Z,17.46
2024-04-07T02:11:00.996Z,17.46
2024-04-07T02:12:01.040Z,17.46
2024-04-07T02:13:00.981Z,17.43
2024-04-07T02:14:00.908Z,17.41
2024-04-07T02:15:00.899Z,17.41
2024-04-07T02:16:00.897Z,17.43
2024-04-07T02:17:00.859Z,17.44
2024-04-07T02:18:00.934Z,17.49
2024-04-07T02:19:00.857Z,17.54
2024-04-07T02:20:00.854Z,17.55
2024-04-07T02:21:00.831Z,17.56
2024-04-07T02:22:00.824Z,17.59
2024-04-07T02:23:00.814Z,17.62
2024-04-07T02:24:00.786Z,17.62
2024-04-07T02:25:00.809Z,17.62
2024-04-07T02:26:00.762Z,17.63
2024-04-07T02:27:00.772Z,17.62
2024-04-07T02:28:00.740Z,17.59
2024-04-07T02:29:00.738Z,17.58
2024-04-07T02:30:00.727Z,17.58
2024-04-07T02:31:00.788Z,17.62
2024-04-07T02:32:00.689Z,17.66
2024-04-07T02:33:00.691Z,17.68
2024-04-07T02:34:00.678Z,17.71
2024-04-07T02:35:00.674Z,17.75
2024-04-07T02:36:00.681Z,17.75
2024-04-07T02:37:00.708Z,17.77
2024-04-07T02:38:00.652Z,17.75
2024-04-07T02:39:00.671Z,17.75
2024-04-07T02:40:00.611Z,17.74
2024-04-07T02:41:00.628Z,17.74
2024-04-07T02:42:00.609Z,17.74
2024-04-07T02:43:00.615Z,17.77
2024-04-07T02:44:00.572Z,17.77
2024-04-07T02:45:00.664Z,17.81
2024-04-07T02:46:00.593Z,17.86
2024-04-07T02:47:00.542Z,17.89
2024-04-07T02:48:00.537Z,17.92
2024-04-07T02:49:00.581Z,17.93
2024-04-07T02:50:00.563Z,17.95
2024-04-07T02:51:00.556Z,17.97
2024-04-07T02:52:00.539Z,17.97
2024-04-07T02:53:00.481Z,17.99
2024-04-07T02:54:00.552Z,18.03
2024-04-07T02:55:00.502Z,18.07
2024-04-07T02:56:00.437Z,18.05
2024-04-07T02:57:00.430Z,18.10
2024-04-07T02:58:00.429Z,18.12
2024-04-07T02:59:00.422Z,18.15
2024-04-07T03:00:00.397Z,18.15
2024-04-07T03:01:00.455Z,18.18
2024-04-07T03:02:00.378Z,18.23
2024-04-07T03:03:00.359Z,18.26
2024-04-07T03:04:00.355Z,18.29
2024-04-07T03:05:00.365Z,18.30
2024-04-07T03:06:00.360Z,18.32
2024-04-07T03:07:00.977Z,18.32
2024-04-07T03:08:00.326Z,18.30
2024-04-07T03:09:01.296Z,18.33
2024-04-07T03:10:00.298Z,18.37
2024-04-07T03:11:00.290Z,18.39
2024-04-07T03:12:00.268Z,18.41
2024-04-07T03:13:00.304Z,18.42
2024-04-07T03:14:00.239Z,18.48
2024-04-07T03:15:00.244Z,18.54
2024-04-07T03:16:00.224Z,18.57
2024-04-07T03:17:01.284Z,18.60
2024-04-07T03:18:00.196Z,18.65
2024-04-07T03:19:00.254Z,18.66
2024-04-07T03:20:00.197Z,18.66
2024-04-07T03:21:00.201Z,18.67
2024-04-07T03:22:00.140Z,18.75
2024-04-07T03:23:00.191Z,18.87
2024-04-07T03:24:00.133Z,18.90
2024-04-07T03:25:00.169Z,18.90
2024-04-07T03:26:00.120Z,18.90
2024-04-07T03:27:00.108Z,18.85
2024-04-07T03:28:00.115Z,18.81
2024-04-07T03:29:00.094Z,18.76
2024-04-07T03:30:00.052Z,18.76
2024-04-07T03:31:00.086Z,18.73
2024-04-07T03:32:00.056Z,18.75
2024-04-07T03:33:00.026Z,18.78
2024-04-07T03:34:00.003Z,18.84
2024-04-07T03:35:00.003Z,18.88
2024-04-07T03:36:00.004Z,18.88
2024-04-07T03:37:00.023Z,18.98
2024-04-07T03:37:59.996Z,18.98
2024-04-07T03:38:59.980Z,19.04
2024-04-07T03:39:59.952Z,19.07
2024-04-07T03:41:00.076Z,19.07
2024-04-07T03:41:59.937Z,19.13
2024-04-07T03:42:59.980Z,19.22
2024-04-07T03:43:59.898Z,19.26
2024-04-07T03:44:59.902Z,19.26
2024-04-07T03:45:59.887Z,19.29
2024-04-07T03:46:59.879Z,19.36
2024-04-07T03:47:59.865Z,19.43
2024-04-07T03:49:00.055Z,19.51
2024-04-07T03:49:59.842Z,19.59
2024-04-07T03:50:59.853Z,19.55
2024-04-07T03:51:59.820Z,19.59
2024-04-07T03:52:59.810Z,19.68
2024-04-07T03:53:59.792Z,19.76
2024-04-07T03:54:59.995Z,19.84
2024-04-07T03:55:59.792Z,19.94
2024-04-07T03:56:59.785Z,20.10
2024-04-07T03:57:59.761Z,20.20
2024-04-07T03:58:59.767Z,20.28
2024-04-07T03:59:59.730Z,20.28
2024-04-07T04:01:00.724Z,20.29
2024-04-07T04:01:59.720Z,20.26
2024-04-07T04:02:59.694Z,20.26
2024-04-07T04:03:59.688Z,20.23
2024-04-07T04:04:59.709Z,20.21
2024-04-07T04:05:59.684Z,20.26
2024-04-07T04:06:59.676Z,20.24
2024-04-07T04:08:00.609Z,20.23
2024-04-07T04:08:59.645Z,20.26
2024-04-07T04:09:59.655Z,20.28
2024-04-07T04:10:59.636Z,20.29
2024-04-07T04:11:59.660Z,20.21
2024-04-07T04:12:59.631Z,20.23
2024-04-07T04:13:59.578Z,20.16
2024-04-07T04:14:59.561Z,20.14
2024-04-07T04:15:59.546Z,20.11
2024-04-07T04:16:59.555Z,20.06
2024-04-07T04:17:59.531Z,20.08
2024-04-07T04:18:59.575Z,20.02
2024-04-07T04:19:59.510Z,19.98
2024-04-07T04:20:59.514Z,19.98
2024-04-07T04:21:59.491Z,19.94
2024-04-07T04:22:59.470Z,19.86
2024-04-07T04:23:59.476Z,19.80
2024-04-07T04:24:59.490Z,19.77
2024-04-07T04:26:00.410Z,19.73
2024-04-07T04:26:59.443Z,19.71
2024-04-07T04:27:59.436Z,19.65
2024-04-07T04:28:59.410Z,19.59
2024-04-07T04:29:59.395Z,19.55
2024-04-07T04:30:59.405Z,19.50
2024-04-07T04:31:59.386Z,19.48
2024-04-07T04:32:59.382Z,19.46
2024-04-07T04:33:59.355Z,19.43
2024-04-07T04:34:59.349Z,19.37
2024-04-07T04:35:59.339Z,19.33
2024-04-07T04:36:59.364Z,19.31
2024-04-07T04:37:59.340Z,19.25
2024-04-07T04:38:59.313Z,19.18
2024-04-07T04:39:59.312Z,19.11
2024-04-07T04:40:59.274Z,19.06
2024-04-07T04:41:59.307Z,19.02
2024-04-07T04:42:59.293Z,18.95
2024-04-07T04:43:59.269Z,18.88
2024-04-07T04:44:59.240Z,18.82
2024-04-07T04:45:59.218Z,18.84
2024-04-07T04:46:59.223Z,18.81
2024-04-07T04:47:59.206Z,18.82
2024-04-07T04:48:59.292Z,18.75
2024-04-07T04:49:59.174Z,18.69
2024-04-07T04:50:59.178Z,18.65
2024-04-07T04:51:59.153Z,18.62
2024-04-07T04:52:59.185Z,18.57
2024-04-07T04:53:59.150Z,18.54
2024-04-07T04:54:59.124Z,18.51
2024-04-07T04:55:59.130Z,18.50
2024-04-07T04:56:59.099Z,18.48
2024-04-07T04:57:59.096Z,18.47
2024-04-07T04:58:59.080Z,18.39
2024-04-07T05:00:00.252Z,18.35
2024-04-07T05:01:00.022Z,18.30
2024-04-07T05:01:59.134Z,18.27
2024-04-07T05:02:59.027Z,18.25
2024-04-07T05:03:59.045Z,18.25
2024-04-07T05:04:59.020Z,18.26
2024-04-07T05:05:58.997Z,18.23
2024-04-07T05:06:59.018Z,18.17
2024-04-07T05:07:58.985Z,18.18
2024-04-07T05:08:59.960Z,18.12
2024-04-07T05:09:58.982Z,18.11
2024-04-07T05:10:58.973Z,18.11
2024-04-07T05:11:58.948Z,18.10
2024-04-07T05:12:58.915Z,18.05
2024-04-07T05:13:58.932Z,17.99
2024-04-07T05:14:58.880Z,17.97
2024-04-07T05:15:58.896Z,17.99
2024-04-07T05:16:58.866Z,17.97
2024-04-07T05:17:58.864Z,17.96
2024-04-07T05:18:59.054Z,17.99
2024-04-07T05:19:58.855Z,18.02
2024-04-07T05:20:58.838Z,18.02
2024-04-07T05:21:58.824Z,17.97
2024-04-07T05:22:58.815Z,17.97
2024-04-07T05:23:59.233Z,17.96
2024-04-07T05:24:58.793Z,17.93
2024-04-07T05:25:58.786Z,17.96
2024-04-07T05:26:59.443Z,17.95
2024-04-07T05:27:58.780Z,17.95
2024-04-07T05:28:59.424Z,17.93
2024-04-07T05:29:58.733Z,17.90
2024-04-07T05:30:58.748Z,17.92
2024-04-07T05:31:59.687Z,17.92
2024-04-07T05:32:59.463Z,17.87
2024-04-07T05:33:58.718Z,17.87
2024-04-07T05:34:58.758Z,17.84
2024-04-07T05:35:59.638Z,17.82
2024-04-07T05:36:58.691Z,17.82
2024-04-07T05:37:58.685Z,17.86
2024-04-07T05:39:02.802Z,17.84
2024-04-07T05:40:01.478Z,17.79
2024-04-07T05:40:58.667Z,17.77
2024-04-07T05:41:58.625Z,17.74
2024-04-07T05:42:58.608Z,17.74
2024-04-07T05:43:58.796Z,17.71
2024-04-07T05:44:58.583Z,17.71
2024-04-07T05:45:58.580Z,17.70
2024-04-07T05:46:58.597Z,17.68
2024-04-07T05:47:59.513Z,17.68
2024-04-07T05:48:58.621Z,17.66
2024-04-07T05:50:02.181Z,17.64
2024-04-07T05:51:00.605Z,17.64
2024-04-07T05:51:58.586Z,17.63
2024-04-07T05:52:58.522Z,17.62
2024-04-07T05:53:58.505Z,17.62
2024-04-07T05:54:58.457Z,17.62
2024-04-07T05:55:59.918Z,17.63
2024-04-07T05:56:58.439Z,17.64
2024-04-07T05:57:58.444Z,17.66
2024-04-07T05:58:58.474Z,17.66
2024-04-07T05:59:58.419Z,17.68
2024-04-07T06:00:58.439Z,17.66
2024-04-07T06:01:59.367Z,17.68
2024-04-07T06:02:58.406Z,17.70
2024-04-07T06:03:58.374Z,17.74
2024-04-07T06:04:59.326Z,17.72
2024-04-07T06:05:58.357Z,17.74
2024-04-07T06:06:59.711Z,17.75
2024-04-07T06:07:58.736Z,17.75
2024-04-07T06:08:58.525Z,17.78
2024-04-07T06:09:58.659Z,17.77
2024-04-07T06:10:58.701Z,17.79
2024-04-07T06:11:58.397Z,17.78
2024-04-07T06:12:58.327Z,17.79
2024-04-07T06:13:58.523Z,17.79
2024-04-07T06:14:58.312Z,17.82
2024-04-07T06:15:58.249Z,17.86
2024-04-07T06:16:58.246Z,17.89
2024-04-07T06:17:58.950Z,17.93
2024-04-07T06:18:58.210Z,17.95
2024-04-07T06:19:58.216Z,17.93
2024-04-07T06:20:58.201Z,17.93
2024-04-07T06:21:58.178Z,17.95
2024-04-07T06:22:58.174Z,17.96
2024-04-07T06:23:58.143Z,17.97
2024-04-07T06:24:58.163Z,17.95
2024-04-07T06:25:58.220Z,17.93
2024-04-07T06:26:58.120Z,17.97
2024-04-07T06:27:58.103Z,17.99
2024-04-07T06:28:58.103Z,17.97
2024-04-07T06:29:58.101Z,18.00
2024-04-07T06:30:58.074Z,18.02
2024-04-07T06:31:58.112Z,18.00
2024-04-07T06:32:58.057Z,17.97
2024-04-07T06:33:58.110Z,17.97
2024-04-07T06:34:58.109Z,17.93
2024-04-07T06:35:58.031Z,17.92
2024-04-07T06:36:58.023Z,17.92
2024-04-07T06:37:58.102Z,17.95
2024-04-07T06:38:57.975Z,17.90
2024-04-07T06:39:57.995Z,17.90
2024-04-07T06:40:58.024Z,17.92
2024-04-07T06:41:57.960Z,17.93
2024-04-07T06:42:57.929Z,17.93
2024-04-07T06:43:57.982Z,17.92
2024-04-07T06:44:57.954Z,17.92
2024-04-07T06:45:57.904Z,17.96
2024-04-07T06:46:57.930Z,17.95
2024-04-07T06:47:57.900Z,17.96
2024-04-07T06:48:57.879Z,17.96
2024-04-07T06:49:57.945Z,17.97
2024-04-07T06:50:57.992Z,17.99
2024-04-07T06:51:57.862Z,17.99
2024-04-07T06:52:57.918Z,18.00
2024-04-07T06:53:57.812Z,18.03
2024-04-07T06:54:57.808Z,18.05
2024-04-07T06:55:57.870Z,18.05
2024-04-07T06:56:57.824Z,18.08
2024-04-07T06:57:57.775Z,18.05
2024-04-07T06:58:57.832Z,18.05
2024-04-07T06:59:57.761Z,18.03
2024-04-07T07:00:57.737Z,18.02
2024-04-07T07:01:57.785Z,18.03
2024-04-07T07:02:57.722Z,18.03
2024-04-07T07:03:57.705Z,18.02
2024-04-07T07:04:57.760Z,18.02
2024-04-07T07:05:57.684Z,18.02
2024-04-07T07:06:57.687Z,18.02
2024-04-07T07:07:57.751Z,18.00
2024-04-07T07:08:57.661Z,18.02
2024-04-07T07:09:57.649Z,18.03
2024-04-07T07:10:57.661Z,18.05
2024-04-07T07:11:57.636Z,18.07
2024-04-07T07:12:57.621Z,18.10
2024-04-07T07:13:57.679Z,18.12
2024-04-07T07:14:57.593Z,18.12
2024-04-07T07:15:57.591Z,18.15
2024-04-07T07:16:57.633Z,18.20
2024-04-07T07:17:57.564Z,18.20
2024-04-07T07:18:57.531Z,18.26
2024-04-07T07:19:57.594Z,18.26
2024-04-07T07:20:57.525Z,18.27
2024-04-07T07:21:57.521Z,18.30
2024-04-07T07:22:57.578Z,18.33
2024-04-07T07:23:57.499Z,18.33
2024-04-07T07:24:57.473Z,18.36
2024-04-07T07:25:57.527Z,18.36
2024-04-07T07:26:57.469Z,18.37
2024-04-07T07:27:57.439Z,18.36
2024-04-07T07:28:57.479Z,18.37
2024-04-07T07:29:57.413Z,18.37
2024-04-07T07:30:57.422Z,18.37
2024-04-07T07:31:57.467Z,18.36
2024-04-07T07:32:57.386Z,18.36
2024-04-07T07:33:57.386Z,18.41
2024-04-07T07:34:57.384Z,18.39
2024-04-07T07:35:57.355Z,18.42
2024-04-07T07:36:57.345Z,18.42
2024-04-07T07:37:57.404Z,18.47
2024-04-07T07:38:57.328Z,18.48
2024-04-07T07:39:57.305Z,18.48
2024-04-07T07:40:57.387Z,18.48
2024-04-07T07:41:57.274Z,18.51
2024-04-07T07:42:57.284Z,18.54
2024-04-07T07:43:57.273Z,18.55
2024-04-07T07:44:57.258Z,18.57
2024-04-07T07:45:57.272Z,18.60
2024-04-07T07:46:57.262Z,18.65
2024-04-07T07:47:57.220Z,18.67
2024-04-07T07:48:57.206Z,18.66
2024-04-07T07:49:57.217Z,18.65
2024-04-07T07:50:57.203Z,18.67
2024-04-07T07:51:57.218Z,18.72
2024-04-07T07:52:57.231Z,18.76
2024-04-07T07:53:57.171Z,18.78
2024-04-07T07:54:57.147Z,18.82
2024-04-07T07:55:57.173Z,18.90
2024-04-07T07:56:57.122Z,18.88
2024-04-07T07:57:57.117Z,18.98
2024-04-07T07:58:58.100Z,19.06
2024-04-07T08:00:05.231Z,19.16
2024-04-07T08:00:58.091Z,19.18
2024-04-07T08:01:57.111Z,19.22
2024-04-07T08:02:57.067Z,19.29
2024-04-07T08:03:57.057Z,19.37
2024-04-07T08:04:58.018Z,19.41
2024-04-07T08:05:57.039Z,19.50
2024-04-07T08:06:57.038Z,19.56
2024-04-07T08:07:57.010Z,19.63
2024-04-07T08:08:56.994Z,19.66
2024-04-07T08:09:56.972Z,19.69
2024-04-07T08:10:57.100Z,19.66
2024-04-07T08:11:56.963Z,19.68
2024-04-07T08:12:56.938Z,19.65
2024-04-07T08:13:56.952Z,19.65
2024-04-07T08:14:56.933Z,19.65
2024-04-07T08:15:57.862Z,19.66
2024-04-07T08:16:57.871Z,19.65
2024-04-07T08:17:56.903Z,19.68
2024-04-07T08:18:56.900Z,19.76
2024-04-07T08:19:56.906Z,19.83
2024-04-07T08:20:56.855Z,19.87
2024-04-07T08:21:56.880Z,19.91
2024-04-07T08:22:56.873Z,19.88
2024-04-07T08:23:56.816Z,19.92
2024-04-07T08:24:56.832Z,19.88
2024-04-07T08:25:56.876Z,19.88
2024-04-07T08:26:56.790Z,19.88
2024-04-07T08:27:56.804Z,19.95
2024-04-07T08:28:56.810Z,19.98
2024-04-07T08:29:56.780Z,19.92
2024-04-07T08:30:56.749Z,19.92
2024-04-07T08:31:56.812Z,19.91
2024-04-07T08:32:57.691Z,19.91
2024-04-07T08:33:56.711Z,19.84
2024-04-07T08:34:56.727Z,19.74
2024-04-07T08:35:56.703Z,19.69
2024-04-07T08:36:56.691Z,19.65
2024-04-07T08:37:56.715Z,19.61
2024-04-07T08:38:56.661Z,19.58
2024-04-07T08:39:56.675Z,19.54
2024-04-07T08:40:56.667Z,19.48
2024-04-07T08:41:56.630Z,19.47
2024-04-07T08:42:56.619Z,19.46
2024-04-07T08:43:58.854Z,19.41
2024-04-07T08:44:56.596Z,19.39
2024-04-07T08:45:57.546Z,19.36
2024-04-07T08:46:56.607Z,19.37
2024-04-07T08:47:56.594Z,19.36
2024-04-07T08:48:56.551Z,19.32
2024-04-07T08:49:56.560Z,19.28
2024-04-07T08:50:56.552Z,19.29
2024-04-07T08:51:57.505Z,19.28
2024-04-07T08:52:56.530Z,19.25
2024-04-07T08:53:56.484Z,19.26
2024-04-07T08:54:56.538Z,19.26
2024-04-07T08:55:56.538Z,19.25
2024-04-07T08:56:56.483Z,19.26
2024-04-07T08:57:56.445Z,19.23
2024-04-07T08:58:56.495Z,19.23
2024-04-07T08:59:56.427Z,19.31
2024-04-07T09:00:56.409Z,19.36
2024-04-07T09:01:56.876Z,19.40
2024-04-07T09:02:56.403Z,19.43
2024-04-07T09:03:56.375Z,19.46
2024-04-07T09:04:56.846Z,19.50
2024-04-07T09:05:56.388Z,19.50
2024-04-07T09:06:56.376Z,19.46
2024-04-07T09:07:56.384Z,19.47
2024-04-07T09:08:56.346Z,19.51
2024-04-07T09:09:56.309Z,19.56
2024-04-07T09:10:56.416Z,19.58
2024-04-07T09:11:56.326Z,19.59
2024-04-07T09:12:56.267Z,19.63
2024-04-07T09:13:56.328Z,19.63
2024-04-07T09:14:56.268Z,19.63
2024-04-07T09:15:56.263Z,19.66
2024-04-07T09:16:56.302Z,19.68
2024-04-07T09:17:56.223Z,19.71
2024-04-07T09:18:58.558Z,19.71
2024-04-07T09:19:56.246Z,19.77
2024-04-07T09:20:56.186Z,19.77
2024-04-07T09:21:56.190Z,19.81
2024-04-07T09:22:56.246Z,19.86
2024-04-07T09:23:56.168Z,19.91
2024-04-07T09:24:56.151Z,19.95
2024-04-07T09:25:56.153Z,19.95
2024-04-07T09:26:56.138Z,20.06
2024-04-07T09:27:56.104Z,20.08
2024-04-07T09:28:56.325Z,20.08
2024-04-07T09:29:56.125Z,20.16
2024-04-07T09:30:56.096Z,20.14
2024-04-07T09:31:56.109Z,20.13
2024-04-07T09:32:56.080Z,20.23
2024-04-07T09:33:57.075Z,20.23
2024-04-07T09:34:56.281Z,20.31
2024-04-07T09:35:56.034Z,20.38
2024-04-07T09:36:56.989Z,20.42
2024-04-07T09:37:56.997Z,20.57
2024-04-07T09:38:56.016Z,20.67
2024-04-07T09:39:55.982Z,20.80
2024-04-07T09:40:56.053Z,21.01
2024-04-07T09:41:56.679Z,21.22
2024-04-07T09:42:55.968Z,21.27
2024-04-07T09:43:56.021Z,21.19
2024-04-07T09:44:55.937Z,21.21
2024-04-07T09:45:55.910Z,21.21
2024-04-07T09:46:56.013Z,21.32
2024-04-07T09:47:55.912Z,21.34
2024-04-07T09:48:55.877Z,21.35
2024-04-07T09:49:55.869Z,21.61
2024-04-07T09:50:55.952Z,21.56
2024-04-07T09:51:55.866Z,21.61
2024-04-07T09:52:56.003Z,21.58
2024-04-07T09:53:55.846Z,21.65
2024-04-07T09:54:55.852Z,21.75
2024-04-07T09:55:55.830Z,21.86
2024-04-07T09:56:55.831Z,21.82
2024-04-07T09:57:55.796Z,21.96
2024-04-07T09:58:55.818Z,21.75
2024-04-07T09:59:55.796Z,21.52
2024-04-07T10:00:55.781Z,21.75
2024-04-07T10:01:55.731Z,22.31
2024-04-07T10:02:55.746Z,22.45
2024-04-07T10:04:09.435Z,22.45
2024-04-07T10:04:55.719Z,22.37
2024-04-07T10:05:57.461Z,22.12
2024-04-07T10:06:55.719Z,21.96
2024-04-07T10:07:55.673Z,22.24
2024-04-07T10:08:55.745Z,22.73
2024-04-07T10:09:55.678Z,22.92
2024-04-07T10:11:04.461Z,23.01
2024-04-07T10:11:56.648Z,23.16
2024-04-07T10:12:55.657Z,23.39
2024-04-07T10:13:55.632Z,23.31
2024-04-07T10:14:55.714Z,23.48
2024-04-07T10:15:55.613Z,23.48
2024-04-07T10:16:55.636Z,23.70
2024-04-07T10:17:55.597Z,23.51
2024-04-07T10:18:55.721Z,23.13
2024-04-07T10:19:55.695Z,22.91
2024-04-07T10:20:55.617Z,22.60
2024-04-07T10:21:55.611Z,22.70
2024-04-07T10:22:55.530Z,22.94
2024-04-07T10:23:55.514Z,22.90
2024-04-07T10:24:55.516Z,22.95
2024-04-07T10:25:55.492Z,22.70
2024-04-07T10:26:55.518Z,22.40
2024-04-07T10:27:55.497Z,22.07
2024-04-07T10:28:55.451Z,21.80
2024-04-07T10:29:55.482Z,21.62
2024-04-07T10:30:55.425Z,21.49
2024-04-07T10:31:55.454Z,21.49
2024-04-07T10:32:55.477Z,21.47
2024-04-07T10:33:55.411Z,21.44
2024-04-07T10:34:55.396Z,21.43
2024-04-07T10:35:55.412Z,21.43
2024-04-07T10:36:55.357Z,21.47
2024-04-07T10:37:56.301Z,21.74
2024-04-07T10:38:55.372Z,21.84
2024-04-07T10:39:55.391Z,21.98
2024-04-07T10:40:55.310Z,22.10
2024-04-07T10:41:55.327Z,22.22
2024-04-07T10:42:55.299Z,22.24
2024-04-07T10:43:55.300Z,22.20
2024-04-07T10:44:55.268Z,22.24
2024-04-07T10:45:55.316Z,22.35
2024-04-07T10:46:55.301Z,22.33
2024-04-07T10:47:55.240Z,22.30
2024-04-07T10:48:55.254Z,22.28
2024-04-07T10:49:55.242Z,22.24
2024-04-07T10:50:55.235Z,22.07
2024-04-07T10:51:55.251Z,21.91
2024-04-07T10:52:55.207Z,21.96
2024-04-07T10:53:55.173Z,21.99
2024-04-07T10:54:55.186Z,21.91
2024-04-07T10:55:55.156Z,21.90
2024-04-07T10:56:55.156Z,21.88
2024-04-07T10:57:55.178Z,21.99
2024-04-07T10:58:55.147Z,22.21
2024-04-07T10:59:55.913Z,22.22
2024-04-07T11:00:55.127Z,22.31
2024-04-07T11:01:55.117Z,22.28
2024-04-07T11:02:55.079Z,22.28
2024-04-07T11:03:55.147Z,22.25
2024-04-07T11:04:55.075Z,22.25
2024-04-07T11:05:55.073Z,22.22
2024-04-07T11:06:55.036Z,22.18
2024-04-07T11:07:55.026Z,22.03
2024-04-07T11:08:55.046Z,21.98
2024-04-07T11:09:55.162Z,21.99
2024-04-07T11:10:55.006Z,21.83
2024-04-07T11:11:54.996Z,21.75
2024-04-07T11:12:54.995Z,21.71
2024-04-07T11:13:54.957Z,21.77
2024-04-07T11:14:54.989Z,21.77
2024-04-07T11:15:54.987Z,21.86
2024-04-07T11:16:54.953Z,21.96
2024-04-07T11:17:54.945Z,22.10
2024-04-07T11:18:54.936Z,22.22
2024-04-07T11:19:54.918Z,22.37
2024-04-07T11:20:54.895Z,22.43
2024-04-07T11:21:54.903Z,22.52
2024-04-07T11:22:54.896Z,22.55
2024-04-07T11:23:54.916Z,22.54
2024-04-07T11:24:54.846Z,22.60
2024-04-07T11:26:05.035Z,22.64
2024-04-07T11:27:08.489Z,22.80
2024-04-07T11:27:54.812Z,22.92
2024-04-07T11:29:03.706Z,23.01
2024-04-07T11:29:54.780Z,23.00
2024-04-07T11:31:04.930Z,22.92
2024-04-07T11:32:07.491Z,22.90
2024-04-07T11:32:55.769Z,22.68
2024-04-07T11:33:54.770Z,22.49
2024-04-07T11:34:54.794Z,22.22
2024-04-07T11:35:54.781Z,22.07
2024-04-07T11:36:54.757Z,21.96
2024-04-07T11:37:54.895Z,21.98
2024-04-07T11:38:54.735Z,21.94
2024-04-07T11:39:57.224Z,22.06
2024-04-07T11:40:54.691Z,22.14
2024-04-07T11:41:54.674Z,22.20
2024-04-07T11:42:55.634Z,22.24
2024-04-07T11:43:54.661Z,22.21
2024-04-07T11:44:54.670Z,22.24
2024-04-07T11:45:54.605Z,22.31
2024-04-07T11:46:54.627Z,22.36
2024-04-07T11:47:54.583Z,22.43
2024-04-07T11:48:54.611Z,22.47
2024-04-07T11:49:54.553Z,22.45
2024-04-07T11:50:54.617Z,22.37
2024-04-07T11:51:54.565Z,22.55
2024-04-07T11:52:54.530Z,22.64
2024-04-07T11:53:54.548Z,22.70
2024-04-07T11:54:54.521Z,22.79
2024-04-07T11:55:54.522Z,22.92
2024-04-07T11:56:54.522Z,23.04
2024-04-07T11:57:54.487Z,23.07
2024-04-07T11:58:54.497Z,23.04
2024-04-07T11:59:54.477Z,23.04
2024-04-07T12:00:54.447Z,22.95
2024-04-07T12:01:54.465Z,22.90
2024-04-07T12:02:54.744Z,22.85
2024-04-07T12:03:54.427Z,22.79
2024-04-07T12:04:54.435Z,22.92
2024-04-07T12:05:54.981Z,23.15
2024-04-07T12:06:54.486Z,23.36
2024-04-07T12:07:54.404Z,23.35
2024-04-07T12:08:54.704Z,23.42
2024-04-07T12:09:54.353Z,23.39
2024-04-07T12:10:54.396Z,23.20
2024-04-07T12:11:54.322Z,23.31
2024-04-07T12:12:54.358Z,23.46
2024-04-07T12:13:54.305Z,23.48
2024-04-07T12:14:54.379Z,23.35
2024-04-07T12:15:54.308Z,23.42
2024-04-07T12:16:54.283Z,23.57
2024-04-07T12:17:54.296Z,23.66
2024-04-07T12:18:54.517Z,23.66
2024-04-07T12:19:55.223Z,23.65
2024-04-07T12:20:54.300Z,23.73
2024-04-07T12:21:54.291Z,23.61
2024-04-07T12:22:54.333Z,23.63
2024-04-07T12:23:54.245Z,23.63
2024-04-07T12:24:55.542Z,23.69
2024-04-07T12:25:54.195Z,23.91
2024-04-07T12:26:54.241Z,24.10
2024-04-07T12:27:54.153Z,24.09
2024-04-07T12:28:54.140Z,24.24
2024-04-07T12:29:54.150Z,24.35
2024-04-07T12:30:54.122Z,24.27
2024-04-07T12:31:54.133Z,24.31
2024-04-07T12:32:54.147Z,24.32
2024-04-07T12:33:55.052Z,24.28
2024-04-07T12:34:54.089Z,24.25
2024-04-07T12:35:54.083Z,24.12
2024-04-07T12:36:54.073Z,24.21
2024-04-07T12:37:54.060Z,24.16
2024-04-07T12:38:54.086Z,24.13
2024-04-07T12:39:54.031Z,24.28
2024-04-07T12:40:54.034Z,24.39
2024-04-07T12:41:54.019Z,24.47
2024-04-07T12:42:53.994Z,24.47
2024-04-07T12:43:53.990Z,24.32
2024-04-07T12:44:54.042Z,24.30
2024-04-07T12:45:53.977Z,24.35
2024-04-07T12:46:53.962Z,24.52
2024-04-07T12:47:53.959Z,24.64
2024-04-07T12:48:53.922Z,24.77
2024-04-07T12:49:53.933Z,24.85
2024-04-07T12:50:53.935Z,24.57
2024-04-07T12:51:53.912Z,24.31